EKBI

Billund Airport

Billund, Denmark
METAR EKBI 210650Z AUTO 11010KT 9999NDV NCD 14/08 Q1026
Observed Flight Rules
May-21 @ 06:50 UTC (21 minutes ago)
Wind Clouds
110° at 10 knots
  • Clear skies
Temperatures Readings
Current 14°C / 57°F
Dewpoint 8°C / 46°F
Humidity 67%
Altimeter 30.3" Hg
Pressure 1026 hPa
Elevation 66
METAR EKBI 210650Z AUTO 11010KT 9999NDV NCD 14/08 Q1026
Observed Flight Rules
May-21 @ 06:50 UTC
(21 minutes ago)
Wind
110° at 10 knots
Clouds
  • Clear skies
Temperature Dewpoint
14°C / 57°F 8°C / 46°F
Humidity Altimeter Pressure
67% 30.3" Hg 1026 hPa